createdAt,value
2018-11-05T00:00:49.587Z,0
2018-11-05T00:01:50.257Z,0
2018-11-05T00:02:50.926Z,0
2018-11-05T00:03:51.597Z,0
2018-11-05T00:04:52.268Z,0
2018-11-05T00:05:52.940Z,0
2018-11-05T00:06:53.608Z,0
2018-11-05T00:07:54.279Z,0
2018-11-05T00:08:54.948Z,0
2018-11-05T00:09:55.621Z,0
2018-11-05T00:10:56.332Z,0
2018-11-05T00:11:57.003Z,0
2018-11-05T00:12:57.675Z,0
2018-11-05T00:13:58.385Z,0
2018-11-05T00:14:59.057Z,0
2018-11-05T00:15:59.726Z,0
2018-11-05T00:17:00.397Z,0
2018-11-05T00:18:01.116Z,0
2018-11-05T00:19:01.790Z,0
2018-11-05T00:20:02.501Z,0
2018-11-05T00:21:03.214Z,0
2018-11-05T00:22:03.882Z,0
2018-11-05T00:23:04.552Z,0
2018-11-05T00:24:05.223Z,0
2018-11-05T00:25:05.893Z,0
2018-11-05T00:26:06.561Z,0
2018-11-05T00:27:07.233Z,0
2018-11-05T00:28:07.944Z,0
2018-11-05T00:29:08.636Z,0
2018-11-05T00:30:09.289Z,0
2018-11-05T00:31:10.009Z,0
2018-11-05T00:32:10.670Z,0
2018-11-05T00:33:11.383Z,0
2018-11-05T00:34:12.055Z,0
2018-11-05T00:35:12.724Z,0
2018-11-05T00:36:13.394Z,0
2018-11-05T00:37:14.064Z,0
2018-11-05T00:38:14.765Z,0
2018-11-05T00:39:15.406Z,0
2018-11-05T00:40:16.077Z,0
2018-11-05T00:41:16.745Z,0
2018-11-05T00:42:17.414Z,0
2018-11-05T00:43:18.081Z,0
2018-11-05T00:44:18.764Z,0
2018-11-05T00:45:19.423Z,0
2018-11-05T00:46:20.094Z,0
2018-11-05T00:47:20.774Z,0
2018-11-05T00:48:21.476Z,0
2018-11-05T00:49:22.148Z,0
2018-11-05T00:50:22.818Z,0
2018-11-05T00:51:23.489Z,0
2018-11-05T00:52:24.158Z,0
2018-11-05T00:53:24.829Z,0
2018-11-05T00:54:25.504Z,0
2018-11-05T00:55:26.169Z,0
2018-11-05T00:56:26.839Z,0
2018-11-05T00:57:27.509Z,0
2018-11-05T00:58:28.181Z,0
2018-11-05T00:59:28.916Z,0
2018-11-05T01:00:29.588Z,0
2018-11-05T01:01:30.258Z,0
2018-11-05T01:02:30.929Z,0
2018-11-05T01:03:31.598Z,0
2018-11-05T01:04:32.268Z,0
2018-11-05T01:05:32.939Z,0
2018-11-05T01:06:33.609Z,0
2018-11-05T01:07:34.283Z,0
2018-11-05T01:08:34.948Z,0
2018-11-05T01:09:35.617Z,0
2018-11-05T01:10:36.288Z,0
2018-11-05T01:11:36.957Z,0
2018-11-05T01:12:37.628Z,0
2018-11-05T01:13:38.298Z,0
2018-11-05T01:14:38.968Z,0
2018-11-05T01:15:39.639Z,0
2018-11-05T01:16:40.309Z,0
2018-11-05T01:17:40.978Z,0
2018-11-05T01:18:41.648Z,0
2018-11-05T01:19:42.365Z,0
2018-11-05T01:20:43.076Z,0
2018-11-05T01:21:43.745Z,0
2018-11-05T01:22:44.425Z,0
2018-11-05T01:23:45.129Z,0
2018-11-05T01:24:45.798Z,0
2018-11-05T01:25:46.478Z,0
2018-11-05T01:26:47.140Z,0
2018-11-05T01:27:47.809Z,0
2018-11-05T01:28:48.481Z,0
2018-11-05T01:29:49.157Z,0
2018-11-05T01:30:49.823Z,0
2018-11-05T01:31:50.493Z,0
2018-11-05T01:32:51.162Z,0
2018-11-05T01:33:51.833Z,0
2018-11-05T01:34:52.504Z,0
2018-11-05T01:35:53.173Z,0
2018-11-05T01:36:53.883Z,0
2018-11-05T01:37:54.513Z,0
2018-11-05T01:38:55.195Z,0
2018-11-05T01:39:55.896Z,0
2018-11-05T01:40:56.565Z,0
2018-11-05T01:41:57.237Z,0
2018-11-05T01:42:57.907Z,0
2018-11-05T01:43:58.576Z,0
2018-11-05T01:44:59.247Z,0
2018-11-05T01:45:59.918Z,0
2018-11-05T01:47:00.587Z,0
2018-11-05T01:48:01.258Z,0
2018-11-05T01:49:01.969Z,0
2018-11-05T01:50:02.642Z,0
2018-11-05T01:51:03.311Z,0
2018-11-05T01:52:03.981Z,0
2018-11-05T01:53:04.654Z,0
2018-11-05T01:54:05.365Z,0
2018-11-05T01:55:06.036Z,0
2018-11-05T01:56:06.748Z,0
2018-11-05T01:57:07.419Z,0
2018-11-05T01:58:08.098Z,0
2018-11-05T01:59:08.761Z,0
2018-11-05T02:00:09.430Z,0
2018-11-05T02:01:10.100Z,0
2018-11-05T02:02:10.771Z,0
2018-11-05T02:03:11.441Z,0
2018-11-05T02:04:12.113Z,0
2018-11-05T02:05:12.783Z,0
2018-11-05T02:06:13.458Z,0
2018-11-05T02:07:14.165Z,0
2018-11-05T02:08:14.835Z,0
2018-11-05T02:09:15.509Z,0
2018-11-05T02:10:16.249Z,0
2018-11-05T02:11:16.884Z,0
2018-11-05T02:12:17.552Z,0
2018-11-05T02:13:18.282Z,0
2018-11-05T02:14:18.891Z,0
2018-11-05T02:15:19.606Z,0
2018-11-05T02:16:20.276Z,0
2018-11-05T02:17:20.946Z,0
2018-11-05T02:18:21.615Z,0
2018-11-05T02:19:22.285Z,0
2018-11-05T02:20:22.957Z,0
2018-11-05T02:21:23.628Z,0
2018-11-05T02:22:24.299Z,0
2018-11-05T02:23:24.968Z,0
2018-11-05T02:24:25.649Z,0
2018-11-05T02:25:26.308Z,0
2018-11-05T02:26:26.990Z,0
2018-11-05T02:27:27.768Z,0
2018-11-05T02:28:28.395Z,0
2018-11-05T02:29:29.063Z,0
2018-11-05T02:30:29.744Z,0
2018-11-05T02:31:30.406Z,0
2018-11-05T02:32:31.075Z,0
2018-11-05T02:33:31.746Z,0
2018-11-05T02:34:32.415Z,0
2018-11-05T02:35:33.129Z,0
2018-11-05T02:36:33.802Z,0
2018-11-05T02:37:34.471Z,0
2018-11-05T02:38:35.140Z,0
2018-11-05T02:39:35.809Z,0
2018-11-05T02:40:36.480Z,0
2018-11-05T02:41:37.152Z,0
2018-11-05T02:42:37.864Z,0
2018-11-05T02:43:38.533Z,0
2018-11-05T02:44:39.203Z,0
2018-11-05T02:45:39.875Z,0
2018-11-05T02:46:40.544Z,0
2018-11-05T02:47:41.217Z,0
2018-11-05T02:48:41.926Z,0
2018-11-05T02:49:42.595Z,0
2018-11-05T02:50:43.270Z,0
2018-11-05T02:51:43.935Z,0
2018-11-05T02:52:44.609Z,0
2018-11-05T02:53:45.319Z,0
2018-11-05T02:54:45.988Z,0
2018-11-05T02:55:46.704Z,0
2018-11-05T02:56:47.416Z,0
2018-11-05T02:57:48.088Z,0
2018-11-05T02:58:48.755Z,0
2018-11-05T02:59:49.424Z,0
2018-11-05T03:00:50.097Z,0
2018-11-05T03:01:50.808Z,0
2018-11-05T03:02:51.479Z,0
2018-11-05T03:03:52.149Z,0
2018-11-05T03:04:52.819Z,0
2018-11-05T03:05:53.491Z,0
2018-11-05T03:06:54.168Z,0
2018-11-05T03:07:54.874Z,0
2018-11-05T03:08:55.544Z,0
2018-11-05T03:09:56.217Z,0
2018-11-05T03:10:56.883Z,0
2018-11-05T03:11:57.552Z,0
2018-11-05T03:12:58.226Z,0
2018-11-05T03:13:58.891Z,0
2018-11-05T03:14:59.561Z,0
2018-11-05T03:16:00.231Z,0
2018-11-05T03:17:00.901Z,0
2018-11-05T03:18:01.571Z,0
2018-11-05T03:19:02.245Z,0
2018-11-05T03:20:02.914Z,0
2018-11-05T03:21:03.674Z,0
2018-11-05T03:22:04.344Z,0
2018-11-05T03:23:05.012Z,0
2018-11-05T03:24:05.684Z,0
2018-11-05T03:25:06.355Z,0
2018-11-05T03:26:07.025Z,0
2018-11-05T03:27:07.695Z,0
2018-11-05T03:28:08.407Z,0
2018-11-05T03:29:09.077Z,0
2018-11-05T03:30:09.746Z,0
2018-11-05T03:31:10.417Z,0
2018-11-05T03:32:11.089Z,0
2018-11-05T03:33:11.756Z,0
2018-11-05T03:34:12.427Z,0
2018-11-05T03:35:13.096Z,0
2018-11-05T03:36:13.766Z,0
2018-11-05T03:37:14.437Z,0
2018-11-05T03:38:15.145Z,0
2018-11-05T03:39:15.815Z,0
2018-11-05T03:40:16.528Z,0
2018-11-05T03:41:17.200Z,0
2018-11-05T03:42:17.911Z,0
2018-11-05T03:43:18.580Z,0
2018-11-05T03:44:19.250Z,0
2018-11-05T03:45:19.919Z,0
2018-11-05T03:46:20.590Z,0
2018-11-05T03:47:21.259Z,0
2018-11-05T03:48:21.928Z,0
2018-11-05T03:49:22.602Z,0
2018-11-05T03:50:23.268Z,0
2018-11-05T03:51:23.937Z,0
2018-11-05T03:52:24.605Z,0
2018-11-05T03:53:25.273Z,0
2018-11-05T03:54:25.945Z,0
2018-11-05T03:55:26.647Z,0
2018-11-05T03:56:27.338Z,0
2018-11-05T03:57:27.954Z,0
2018-11-05T03:58:28.623Z,0
2018-11-05T03:59:29.294Z,0
2018-11-05T04:00:29.963Z,0
2018-11-05T04:01:30.637Z,0
2018-11-05T04:02:31.345Z,0
2018-11-05T04:03:32.197Z,0
2018-11-05T04:04:32.745Z,0
2018-11-05T04:05:33.409Z,0
2018-11-05T04:06:34.122Z,0
2018-11-05T04:07:34.791Z,0
2018-11-05T04:08:35.462Z,0
2018-11-05T04:09:36.176Z,0
2018-11-05T04:10:36.845Z,0
2018-11-05T04:11:37.516Z,0
2018-11-05T04:12:38.189Z,0
2018-11-05T04:13:38.860Z,0
2018-11-05T04:14:39.530Z,0
2018-11-05T04:15:40.317Z,0
2018-11-05T04:16:40.916Z,0
2018-11-05T04:17:41.581Z,0
2018-11-05T04:18:42.251Z,0
2018-11-05T04:19:42.920Z,0
2018-11-05T04:20:43.589Z,0
2018-11-05T04:21:44.262Z,0
2018-11-05T04:22:44.931Z,0
2018-11-05T04:23:45.610Z,0
2018-11-05T04:24:46.273Z,0
2018-11-05T04:25:46.947Z,0
2018-11-05T04:26:47.670Z,0
2018-11-05T04:27:48.460Z,0
2018-11-05T04:28:49.077Z,0
2018-11-05T04:29:49.747Z,0
2018-11-05T04:30:50.417Z,0
2018-11-05T04:31:51.087Z,0
2018-11-05T04:32:51.760Z,0
2018-11-05T04:33:52.425Z,0
2018-11-05T04:34:53.094Z,0
2018-11-05T04:35:53.768Z,0
2018-11-05T04:36:54.434Z,0
2018-11-05T04:37:55.104Z,0
2018-11-05T04:38:55.773Z,0
2018-11-05T04:39:56.441Z,0
2018-11-05T04:40:57.111Z,0
2018-11-05T04:41:57.824Z,0
2018-11-05T04:42:58.536Z,0
2018-11-05T04:43:59.205Z,0
2018-11-05T04:44:59.872Z,0
2018-11-05T04:46:00.542Z,0
2018-11-05T04:47:01.213Z,0
2018-11-05T04:48:01.882Z,0
2018-11-05T04:49:02.550Z,0
2018-11-05T04:50:03.263Z,0
2018-11-05T04:51:03.933Z,0
2018-11-05T04:52:04.610Z,0
2018-11-05T04:53:05.270Z,0
2018-11-05T04:54:05.939Z,0
2018-11-05T04:55:06.609Z,0
2018-11-05T04:56:07.278Z,0
2018-11-05T04:57:07.947Z,0
2018-11-05T04:58:08.616Z,0
2018-11-05T04:59:09.286Z,0
2018-11-05T05:00:09.957Z,0
2018-11-05T05:01:10.622Z,0
2018-11-05T05:02:11.301Z,0
2018-11-05T05:03:11.990Z,0
2018-11-05T05:04:12.626Z,0
2018-11-05T05:05:13.298Z,0
2018-11-05T05:06:13.965Z,0
2018-11-05T05:07:14.635Z,0
2018-11-05T05:08:15.304Z,0
2018-11-05T05:09:16.015Z,0
2018-11-05T05:10:16.690Z,0
2018-11-05T05:11:17.354Z,0
2018-11-05T05:12:18.023Z,0
2018-11-05T05:13:18.691Z,0
2018-11-05T05:14:19.359Z,0
2018-11-05T05:15:20.030Z,0
2018-11-05T05:16:20.751Z,0
2018-11-05T05:17:21.365Z,0
2018-11-05T05:18:22.034Z,0
2018-11-05T05:19:22.701Z,0
2018-11-05T05:20:23.371Z,0
2018-11-05T05:21:24.041Z,0
2018-11-05T05:22:24.725Z,0
2018-11-05T05:23:25.375Z,0
2018-11-05T05:24:26.043Z,0
2018-11-05T05:25:26.714Z,0
2018-11-05T05:26:27.382Z,0
2018-11-05T05:27:28.054Z,0
2018-11-05T05:28:28.761Z,0
2018-11-05T05:29:29.433Z,0
2018-11-05T05:30:30.145Z,0
2018-11-05T05:31:30.813Z,0
2018-11-05T05:32:31.525Z,0
2018-11-05T05:33:32.277Z,0
2018-11-05T05:34:32.861Z,0
2018-11-05T05:35:33.532Z,0
2018-11-05T05:36:34.199Z,0
2018-11-05T05:37:34.912Z,0
2018-11-05T05:38:35.581Z,0
2018-11-05T05:39:36.260Z,0
2018-11-05T05:40:36.962Z,0
2018-11-05T05:41:37.587Z,0
2018-11-05T05:42:38.255Z,0
2018-11-05T05:43:38.923Z,0
2018-11-05T05:44:39.592Z,4
2018-11-05T05:45:40.260Z,4
2018-11-05T05:46:40.930Z,4
2018-11-05T05:47:41.596Z,0
2018-11-05T05:48:42.264Z,4
2018-11-05T05:49:42.933Z,4
2018-11-05T05:50:43.602Z,8
2018-11-05T05:51:44.271Z,4
2018-11-05T05:52:44.942Z,8
2018-11-05T05:53:45.604Z,8
2018-11-05T05:54:46.274Z,12
2018-11-05T05:55:46.948Z,8
2018-11-05T05:56:47.613Z,12
2018-11-05T05:57:48.283Z,12
2018-11-05T05:58:48.950Z,20
2018-11-05T05:59:49.644Z,20
2018-11-05T06:00:50.291Z,24
2018-11-05T06:01:50.961Z,28
2018-11-05T06:02:51.629Z,32
2018-11-05T06:03:52.307Z,36
2018-11-05T06:04:53.013Z,40
2018-11-05T06:05:53.782Z,44
2018-11-05T06:06:54.395Z,52
2018-11-05T06:07:55.066Z,60
2018-11-05T06:08:55.735Z,68
2018-11-05T06:09:56.404Z,76
2018-11-05T06:10:57.072Z,80
2018-11-05T06:11:57.741Z,96
2018-11-05T06:12:58.415Z,100
2018-11-05T06:13:59.085Z,116
2018-11-05T06:14:59.755Z,128
2018-11-05T06:16:00.522Z,140
2018-11-05T06:17:01.102Z,156
2018-11-05T06:18:01.812Z,164
2018-11-05T06:19:02.484Z,176
2018-11-05T06:20:03.155Z,188
2018-11-05T06:21:03.824Z,200
2018-11-05T06:22:04.589Z,224
2018-11-05T06:23:05.285Z,244
2018-11-05T06:24:05.981Z,260
2018-11-05T06:25:06.689Z,260
2018-11-05T06:26:07.359Z,272
2018-11-05T06:27:08.032Z,312
2018-11-05T06:28:08.702Z,304
2018-11-05T06:29:09.374Z,316
2018-11-05T06:30:10.045Z,344
2018-11-05T06:31:10.765Z,352
2018-11-05T06:32:11.439Z,356
2018-11-05T06:33:12.153Z,376
2018-11-05T06:34:12.826Z,404
2018-11-05T06:35:13.529Z,440
2018-11-05T06:36:14.170Z,460
2018-11-05T06:37:14.843Z,432
2018-11-05T06:38:15.513Z,424
2018-11-05T06:39:16.185Z,424
2018-11-05T06:40:16.857Z,416
2018-11-05T06:41:17.573Z,424
2018-11-05T06:42:18.245Z,432
2018-11-05T06:43:18.920Z,420
2018-11-05T06:44:19.638Z,412
2018-11-05T06:45:20.360Z,440
2018-11-05T06:46:20.935Z,448
2018-11-05T06:47:21.606Z,468
2018-11-05T06:48:22.280Z,512
2018-11-05T06:49:22.962Z,520
2018-11-05T06:50:23.624Z,500
2018-11-05T06:51:24.297Z,504
2018-11-05T06:52:24.970Z,512
2018-11-05T06:53:25.686Z,504
2018-11-05T06:54:26.350Z,508
2018-11-05T06:55:27.064Z,472
2018-11-05T06:56:27.739Z,456
2018-11-05T06:57:28.432Z,452
2018-11-05T06:58:29.085Z,440
2018-11-05T06:59:29.754Z,444
2018-11-05T07:00:30.427Z,460
2018-11-05T07:01:31.102Z,460
2018-11-05T07:02:31.859Z,468
2018-11-05T07:03:32.444Z,472
2018-11-05T07:04:33.115Z,484
2018-11-05T07:05:33.860Z,488
2018-11-05T07:06:34.545Z,500
2018-11-05T07:07:35.214Z,508
2018-11-05T07:08:35.886Z,504
2018-11-05T07:09:36.604Z,512
2018-11-05T07:10:37.229Z,552
2018-11-05T07:11:37.903Z,592
2018-11-05T07:12:38.618Z,628
2018-11-05T07:13:39.332Z,640
2018-11-05T07:14:40.015Z,660
2018-11-05T07:15:40.724Z,696
2018-11-05T07:16:41.406Z,724
2018-11-05T07:17:42.115Z,784
2018-11-05T07:18:42.908Z,752
2018-11-05T07:19:43.456Z,832
2018-11-05T07:20:44.132Z,856
2018-11-05T07:21:44.801Z,924
2018-11-05T07:22:45.472Z,1304
2018-11-05T07:23:46.156Z,1360
2018-11-05T07:24:46.819Z,1508
2018-11-05T07:25:47.494Z,1536
2018-11-05T07:26:48.208Z,1508
2018-11-05T07:27:48.962Z,1444
2018-11-05T07:28:49.592Z,1588
2018-11-05T07:29:50.267Z,1584
2018-11-05T07:30:50.941Z,1636
2018-11-05T07:31:51.613Z,1756
2018-11-05T07:32:52.285Z,1576
2018-11-05T07:33:53.128Z,1904
2018-11-05T07:34:53.633Z,1764
2018-11-05T07:35:54.307Z,1848
2018-11-05T07:36:54.979Z,1884
2018-11-05T07:37:55.655Z,2008
2018-11-05T07:38:56.329Z,1724
2018-11-05T07:39:57.047Z,1916
2018-11-05T07:40:57.765Z,2164
2018-11-05T07:41:58.440Z,2204
2018-11-05T07:42:59.161Z,2172
2018-11-05T07:43:59.825Z,2120
2018-11-05T07:45:00.501Z,2200
2018-11-05T07:46:01.183Z,2208
2018-11-05T07:47:01.853Z,2208
2018-11-05T07:48:02.569Z,2244
2018-11-05T07:49:03.244Z,2208
2018-11-05T07:50:03.929Z,2128
2018-11-05T07:51:04.595Z,2172
2018-11-05T07:52:05.271Z,2184
2018-11-05T07:53:05.954Z,2192
2018-11-05T07:54:06.666Z,2240
2018-11-05T07:55:07.340Z,2244
2018-11-05T07:56:08.095Z,2024
2018-11-05T07:57:08.693Z,1828
2018-11-05T07:58:09.410Z,1548
2018-11-05T07:59:10.085Z,1356
2018-11-05T08:00:10.760Z,1616
2018-11-05T08:01:11.434Z,1844
2018-11-05T08:02:12.143Z,2188
2018-11-05T08:03:12.829Z,1868
2018-11-05T08:04:13.504Z,1596
2018-11-05T08:05:14.179Z,1956
2018-11-05T08:06:14.855Z,2244
2018-11-05T08:07:15.530Z,2508
2018-11-05T08:08:16.209Z,2412
2018-11-05T08:09:16.879Z,2336
2018-11-05T08:10:17.553Z,2316
2018-11-05T08:11:18.229Z,2400
2018-11-05T08:12:18.905Z,2468
2018-11-05T08:13:19.579Z,2656
2018-11-05T08:14:20.300Z,2728
2018-11-05T08:15:20.930Z,2728
2018-11-05T08:16:21.605Z,2736
2018-11-05T08:17:22.281Z,2692
2018-11-05T08:18:22.959Z,2648
2018-11-05T08:19:23.633Z,2696
2018-11-05T08:20:24.307Z,2808
2018-11-05T08:21:24.984Z,2808
2018-11-05T08:22:25.664Z,2956
2018-11-05T08:23:26.335Z,2968
2018-11-05T08:24:27.010Z,2932
2018-11-05T08:25:27.683Z,2552
2018-11-05T08:26:28.360Z,2564
2018-11-05T08:27:29.036Z,2956
2018-11-05T08:28:29.710Z,2984
2018-11-05T08:29:30.388Z,2932
2018-11-05T08:30:31.063Z,2932
2018-11-05T08:31:31.739Z,2980
2018-11-05T08:32:32.460Z,2864
2018-11-05T08:33:33.179Z,3044
2018-11-05T08:34:33.857Z,2804
2018-11-05T08:35:34.574Z,2308
2018-11-05T08:36:35.249Z,2928
2018-11-05T08:37:35.927Z,3248
2018-11-05T08:38:36.600Z,3160
2018-11-05T08:39:37.289Z,3124
2018-11-05T08:40:38.000Z,2840
2018-11-05T08:41:38.672Z,2880
2018-11-05T08:42:39.348Z,3216
2018-11-05T08:43:40.028Z,3372
2018-11-05T08:44:40.704Z,3324
2018-11-05T08:45:41.380Z,3176
2018-11-05T08:46:42.135Z,3044
2018-11-05T08:47:42.778Z,2928
2018-11-05T08:48:43.454Z,2776
2018-11-05T08:49:44.137Z,2764
2018-11-05T08:50:44.941Z,2856
2018-11-05T08:51:45.896Z,2328
2018-11-05T08:52:46.203Z,2856
2018-11-05T08:53:46.883Z,2368
2018-11-05T08:54:47.555Z,2772
2018-11-05T08:55:48.231Z,2636
2018-11-05T08:56:48.907Z,2784
2018-11-05T08:57:49.678Z,2916
2018-11-05T08:58:50.258Z,2988
2018-11-05T08:59:50.934Z,2708
2018-11-05T09:00:51.615Z,2416
2018-11-05T09:01:52.287Z,2156
2018-11-05T09:02:52.964Z,2544
2018-11-05T09:03:53.638Z,2708
2018-11-05T09:04:54.343Z,2780
2018-11-05T09:05:54.991Z,2516
2018-11-05T09:06:55.715Z,2016
2018-11-05T09:07:56.434Z,2548
2018-11-05T09:08:57.112Z,2800
2018-11-05T09:09:57.800Z,2844
2018-11-05T09:10:58.672Z,3300
2018-11-05T09:11:59.206Z,2868
2018-11-05T09:12:59.812Z,2924
2018-11-05T09:14:00.493Z,3660
2018-11-05T09:15:01.167Z,3152
2018-11-05T09:16:01.847Z,3184
2018-11-05T09:17:02.557Z,2940
2018-11-05T09:18:03.285Z,2680
2018-11-05T09:19:03.963Z,2880
2018-11-05T09:20:04.663Z,3280
2018-11-05T09:21:05.364Z,3180
2018-11-05T09:22:06.038Z,2928
2018-11-05T09:23:06.716Z,3256
2018-11-05T09:24:07.394Z,4040
2018-11-05T09:25:08.071Z,4396
2018-11-05T09:26:08.794Z,4396
2018-11-05T09:27:09.469Z,4308
2018-11-05T09:28:10.146Z,3548
2018-11-05T09:29:10.823Z,3380
2018-11-05T09:30:11.507Z,3496
2018-11-05T09:31:12.180Z,3792
2018-11-05T09:32:12.857Z,3820
2018-11-05T09:33:13.535Z,3728
2018-11-05T09:34:14.213Z,3564
2018-11-05T09:35:14.933Z,3508
2018-11-05T09:36:15.612Z,3464
2018-11-05T09:37:16.289Z,3580
2018-11-05T09:38:16.965Z,3884
2018-11-05T09:39:17.641Z,4244
2018-11-05T09:40:18.319Z,4120
2018-11-05T09:41:18.999Z,3996
2018-11-05T09:42:19.676Z,4164
2018-11-05T09:43:20.352Z,3948
2018-11-05T09:44:21.032Z,3696
2018-11-05T09:45:21.709Z,3780
2018-11-05T09:46:22.390Z,4052
2018-11-05T09:47:23.075Z,3788
2018-11-05T09:48:23.745Z,3944
2018-11-05T09:49:24.418Z,4076
2018-11-05T09:50:25.182Z,4308
2018-11-05T09:51:25.774Z,4160
2018-11-05T09:52:26.451Z,4380
2018-11-05T09:53:27.127Z,4304
2018-11-05T09:54:27.805Z,4196
2018-11-05T09:55:28.517Z,4164
2018-11-05T09:56:29.163Z,3976
2018-11-05T09:57:29.839Z,3960
2018-11-05T09:58:30.521Z,4236
2018-11-05T09:59:31.196Z,4320
2018-11-05T10:00:31.873Z,4232
2018-11-05T10:01:32.553Z,4096
2018-11-05T10:02:33.236Z,4372
2018-11-05T10:03:34.053Z,4320
2018-11-05T10:04:34.783Z,4496
2018-11-05T10:05:35.371Z,4640
2018-11-05T10:06:36.014Z,4684
2018-11-05T10:07:36.693Z,4260
2018-11-05T10:08:37.371Z,3400
2018-11-05T10:09:38.139Z,2852
2018-11-05T10:10:38.810Z,2728
2018-11-05T10:11:39.486Z,2624
2018-11-05T10:12:40.204Z,2528
2018-11-05T10:13:40.882Z,2452
2018-11-05T10:14:41.590Z,2428
2018-11-05T10:15:42.279Z,2352
2018-11-05T10:16:42.958Z,2472
2018-11-05T10:17:43.632Z,2640
2018-11-05T10:18:44.309Z,2736
2018-11-05T10:19:44.986Z,2696
2018-11-05T10:20:45.662Z,2792
2018-11-05T10:21:46.339Z,2952
2018-11-05T10:22:47.017Z,3076
2018-11-05T10:23:47.695Z,3196
2018-11-05T10:24:48.502Z,3020
2018-11-05T10:25:49.137Z,3100
2018-11-05T10:26:49.815Z,3136
2018-11-05T10:27:50.493Z,3068
2018-11-05T10:28:51.213Z,3096
2018-11-05T10:29:51.891Z,3140
2018-11-05T10:30:52.568Z,3176
2018-11-05T10:31:53.290Z,3240
2018-11-05T10:32:53.981Z,3388
2018-11-05T10:33:54.652Z,3584
2018-11-05T10:34:55.331Z,3792
2018-11-05T10:35:56.007Z,4196
2018-11-05T10:36:56.688Z,4396
2018-11-05T10:37:57.368Z,4408
2018-11-05T10:38:58.040Z,4808
2018-11-05T10:39:58.719Z,4628
2018-11-05T10:40:59.394Z,4064
2018-11-05T10:42:00.073Z,3860
2018-11-05T10:43:00.750Z,3808
2018-11-05T10:44:01.427Z,3880
2018-11-05T10:45:02.148Z,4444
2018-11-05T10:46:02.885Z,4120
2018-11-05T10:47:03.502Z,4040
2018-11-05T10:48:04.179Z,3776
2018-11-05T10:49:04.857Z,4016
2018-11-05T10:50:05.533Z,4048
2018-11-05T10:51:06.255Z,3856
2018-11-05T10:52:07.072Z,3372
2018-11-05T10:53:07.613Z,3120
2018-11-05T10:54:08.243Z,3108
2018-11-05T10:55:08.919Z,3280
2018-11-05T10:56:09.597Z,3376
2018-11-05T10:57:10.274Z,3496
2018-11-05T10:58:11.019Z,3724
2018-11-05T10:59:11.628Z,3920
2018-11-05T11:00:12.311Z,4152
2018-11-05T11:01:12.984Z,4420
2018-11-05T11:02:13.668Z,4540
2018-11-05T11:03:14.337Z,4904
2018-11-05T11:04:15.064Z,5236
2018-11-05T11:05:15.702Z,5376
2018-11-05T11:06:16.414Z,5260
2018-11-05T11:07:17.091Z,5096
2018-11-05T11:08:17.770Z,4988
2018-11-05T11:09:18.446Z,4808
2018-11-05T11:10:19.124Z,4868
2018-11-05T11:11:19.801Z,5088
2018-11-05T11:12:20.479Z,5352
2018-11-05T11:13:21.210Z,5420
2018-11-05T11:14:21.879Z,5432
2018-11-05T11:15:22.666Z,5428
2018-11-05T11:16:23.273Z,5256
2018-11-05T11:17:23.949Z,5008
2018-11-05T11:18:24.628Z,5096
2018-11-05T11:19:25.305Z,4996
2018-11-05T11:20:25.982Z,4636
2018-11-05T11:21:26.666Z,4468
2018-11-05T11:22:27.339Z,4512
2018-11-05T11:23:28.024Z,4376
2018-11-05T11:24:28.744Z,4564
2018-11-05T11:25:29.421Z,4980
2018-11-05T11:26:30.107Z,5060
2018-11-05T11:27:30.828Z,4716
2018-11-05T11:28:31.455Z,4824
2018-11-05T11:29:32.129Z,5060
2018-11-05T11:30:32.805Z,5008
2018-11-05T11:31:33.483Z,4692
2018-11-05T11:32:34.164Z,4548
2018-11-05T11:33:34.881Z,4704
2018-11-05T11:34:35.559Z,4728
2018-11-05T11:35:36.237Z,4640
2018-11-05T11:36:36.974Z,4732
2018-11-05T11:37:37.591Z,4568
2018-11-05T11:38:38.267Z,4288
2018-11-05T11:39:38.951Z,4000
2018-11-05T11:40:39.622Z,3876
2018-11-05T11:41:40.329Z,3920
2018-11-05T11:42:41.023Z,4116
2018-11-05T11:43:41.701Z,4256
2018-11-05T11:44:42.417Z,4360
2018-11-05T11:45:43.093Z,4340
2018-11-05T11:46:43.772Z,4380
2018-11-05T11:47:44.447Z,4428
2018-11-05T11:48:45.144Z,4508
2018-11-05T11:49:45.847Z,4636
2018-11-05T11:50:46.523Z,4684
2018-11-05T11:51:47.201Z,4696
2018-11-05T11:52:48.056Z,4764
2018-11-05T11:53:48.556Z,4796
2018-11-05T11:54:49.245Z,4660
2018-11-05T11:55:49.911Z,4632
2018-11-05T11:56:50.588Z,4592
2018-11-05T11:57:51.270Z,4524
2018-11-05T11:58:51.981Z,4700
2018-11-05T11:59:52.662Z,4872
2018-11-05T12:00:53.300Z,4708
2018-11-05T12:01:53.985Z,4624
2018-11-05T12:02:54.651Z,4696
2018-11-05T12:03:55.330Z,4796
2018-11-05T12:04:56.095Z,4784
2018-11-05T12:05:56.684Z,4572
2018-11-05T12:06:57.364Z,4580
2018-11-05T12:07:58.093Z,4540
2018-11-05T12:08:58.717Z,4700
2018-11-05T12:09:59.395Z,4996
2018-11-05T12:11:00.073Z,5008
2018-11-05T12:12:00.749Z,4872
2018-11-05T12:13:01.429Z,4660
2018-11-05T12:14:02.141Z,4512
2018-11-05T12:15:03.012Z,4460
2018-11-05T12:16:03.594Z,4444
2018-11-05T12:17:04.291Z,4520
2018-11-05T12:18:04.993Z,4496
2018-11-05T12:19:05.669Z,4468
2018-11-05T12:20:06.349Z,4292
2018-11-05T12:21:07.026Z,4180
2018-11-05T12:22:07.701Z,4056
2018-11-05T12:23:08.379Z,3948
2018-11-05T12:24:09.056Z,3828
2018-11-05T12:25:09.735Z,3712
2018-11-05T12:26:10.412Z,3624
2018-11-05T12:27:11.137Z,3560
2018-11-05T12:28:11.856Z,3552
2018-11-05T12:29:12.534Z,3572
2018-11-05T12:30:13.212Z,3576
2018-11-05T12:31:13.889Z,3568
2018-11-05T12:32:14.574Z,3556
2018-11-05T12:33:15.243Z,3544
2018-11-05T12:34:15.920Z,3556
2018-11-05T12:35:16.597Z,3572
2018-11-05T12:36:17.318Z,3572
2018-11-05T12:37:17.994Z,3548
2018-11-05T12:38:18.675Z,3528
2018-11-05T12:39:19.395Z,3520
2018-11-05T12:40:20.079Z,3540
2018-11-05T12:41:20.785Z,3544
2018-11-05T12:42:21.428Z,3492
2018-11-05T12:43:22.102Z,3472
2018-11-05T12:44:22.781Z,3484
2018-11-05T12:45:23.457Z,3476
2018-11-05T12:46:24.134Z,3488
2018-11-05T12:47:24.813Z,3524
2018-11-05T12:48:25.488Z,3528
2018-11-05T12:49:26.200Z,3564
2018-11-05T12:50:26.896Z,3620
2018-11-05T12:51:27.564Z,3620
2018-11-05T12:52:28.242Z,3612
2018-11-05T12:53:28.921Z,3596
2018-11-05T12:54:29.594Z,3584
2018-11-05T12:55:30.312Z,3600
2018-11-05T12:56:30.951Z,3608
2018-11-05T12:57:31.628Z,3572
2018-11-05T12:58:32.306Z,3572
2018-11-05T12:59:32.984Z,3576
2018-11-05T13:00:33.660Z,3572
2018-11-05T13:01:34.339Z,3564
2018-11-05T13:02:35.016Z,3536
2018-11-05T13:03:35.694Z,3484
2018-11-05T13:04:36.371Z,3404
2018-11-05T13:05:37.063Z,3308
2018-11-05T13:06:37.723Z,3204
2018-11-05T13:07:38.451Z,3100
2018-11-05T13:08:39.077Z,2988
2018-11-05T13:09:39.753Z,2872
2018-11-05T13:10:40.432Z,2756
2018-11-05T13:11:41.109Z,2676
2018-11-05T13:12:41.809Z,2616
2018-11-05T13:13:42.507Z,2572
2018-11-05T13:14:43.184Z,2548
2018-11-05T13:15:43.860Z,2528
2018-11-05T13:16:44.540Z,2500
2018-11-05T13:17:45.213Z,2488
2018-11-05T13:18:45.943Z,2476
2018-11-05T13:19:46.603Z,2460
2018-11-05T13:20:47.304Z,2444
2018-11-05T13:21:48.000Z,2424
2018-11-05T13:22:48.713Z,2420
2018-11-05T13:23:49.354Z,2436
2018-11-05T13:24:50.029Z,2444
2018-11-05T13:25:50.707Z,2460
2018-11-05T13:26:51.381Z,2488
2018-11-05T13:27:52.056Z,2540
2018-11-05T13:28:52.732Z,2584
2018-11-05T13:29:53.409Z,2624
2018-11-05T13:30:54.083Z,2652
2018-11-05T13:31:54.759Z,2680
2018-11-05T13:32:55.445Z,2696
2018-11-05T13:33:56.190Z,2700
2018-11-05T13:34:56.880Z,2692
2018-11-05T13:35:57.552Z,2680
2018-11-05T13:36:58.283Z,2648
2018-11-05T13:37:59.333Z,2616
2018-11-05T13:38:59.619Z,2588
2018-11-05T13:40:00.294Z,2576
2018-11-05T13:41:00.978Z,2568
2018-11-05T13:42:01.649Z,2556
2018-11-05T13:43:02.321Z,2552
2018-11-05T13:44:02.999Z,2540
2018-11-05T13:45:03.693Z,2532
2018-11-05T13:46:04.737Z,2520
2018-11-05T13:47:05.338Z,2496
2018-11-05T13:48:06.116Z,2472
2018-11-05T13:49:06.742Z,2460
2018-11-05T13:50:07.471Z,2452
2018-11-05T13:51:07.769Z,2448
2018-11-05T13:52:08.588Z,2460
2018-11-05T13:53:09.160Z,2484
2018-11-05T13:54:09.910Z,2500
2018-11-05T13:55:10.518Z,2508
2018-11-05T13:56:11.200Z,2512
2018-11-05T13:57:11.916Z,2508
2018-11-05T13:58:12.614Z,2544
2018-11-05T13:59:13.268Z,2652
2018-11-05T14:00:13.948Z,2844
2018-11-05T14:01:14.621Z,3032
2018-11-05T14:02:15.316Z,3136
2018-11-05T14:03:16.010Z,3252
2018-11-05T14:04:16.687Z,3268
2018-11-05T14:05:17.362Z,3356
2018-11-05T14:06:18.038Z,3320
2018-11-05T14:07:18.715Z,3132